createdAt,value
2023-02-14T00:14:45.145Z,100195.03
2023-02-14T00:17:11.738Z,100189.66
2023-02-14T00:19:38.340Z,100189.09
2023-02-14T00:22:05.392Z,100190.13
2023-02-14T00:24:32.408Z,100187.69
2023-02-14T00:26:59.203Z,100184.97
2023-02-14T00:29:29.627Z,100193.34
2023-02-14T00:31:56.488Z,100182.31
2023-02-14T00:34:23.272Z,100191.66
2023-02-14T00:36:50.672Z,100183.88
2023-02-14T00:39:18.034Z,100183.59
2023-02-14T00:41:44.889Z,100183.88
2023-02-14T00:44:13.017Z,100190.09
2023-02-14T00:46:40.045Z,100184.56
2023-02-14T00:49:06.879Z,100188.84
2023-02-14T00:51:33.470Z,100197.09
2023-02-14T00:54:00.003Z,100194.13
2023-02-14T00:56:26.633Z,100182.03
2023-02-14T00:58:53.213Z,100186.91
2023-02-14T01:01:20.092Z,100183.97
2023-02-14T01:03:47.556Z,100189.94
2023-02-14T01:06:14.453Z,100191.84
2023-02-14T01:08:41.022Z,100189.44
2023-02-14T01:11:08.628Z,100196.31
2023-02-14T01:13:35.245Z,100184.75
2023-02-14T01:16:06.939Z,100193.31
2023-02-14T01:21:14.524Z,100181.72
2023-02-14T01:23:42.162Z,100183.31
2023-02-14T01:26:09.971Z,100176.75
2023-02-14T01:28:37.039Z,100185.53
2023-02-14T01:31:24.801Z,100178.81
2023-02-14T01:33:52.845Z,100178.06
2023-02-14T01:36:24.945Z,100182.28
2023-02-14T01:38:54.458Z,100186.03
2023-02-14T01:41:21.976Z,100183.09
2023-02-14T01:43:50.150Z,100179.31
2023-02-14T01:46:16.794Z,100179.47
2023-02-14T01:48:43.483Z,100174.06
2023-02-14T01:51:10.238Z,100178.50
2023-02-14T01:53:37.184Z,100172.50
2023-02-14T01:56:10.078Z,100177.13
2023-02-14T01:58:39.698Z,100177.09
2023-02-14T02:01:06.909Z,100177.31
2023-02-14T02:03:42.558Z,100175.28
2023-02-14T02:06:13.750Z,100179.06
2023-02-14T02:08:49.251Z,100179.16
2023-02-14T02:11:15.845Z,100174.41
2023-02-14T02:13:42.358Z,100168.69
2023-02-14T02:16:40.085Z,100162.13
2023-02-14T02:19:21.574Z,100163.22
2023-02-14T02:22:09.407Z,100170.22
2023-02-14T02:24:46.610Z,100171.88
2023-02-14T02:27:48.430Z,100166.53
2023-02-14T02:30:37.636Z,100166.53
2023-02-14T02:33:38.849Z,100169.78
2023-02-14T02:36:13.933Z,100167.22
2023-02-14T02:38:59.214Z,100174.72
2023-02-14T02:41:44.016Z,100178.34
2023-02-14T02:44:31.871Z,100178.88
2023-02-14T02:47:22.508Z,100173.19
2023-02-14T02:50:17.358Z,100180.28
2023-02-14T02:53:06.533Z,100161.94
2023-02-14T02:55:59.444Z,100165.38
2023-02-14T02:58:33.179Z,100167.00
2023-02-14T03:01:03.596Z,100163.69
2023-02-14T03:03:51.882Z,100166.63
2023-02-14T03:06:18.498Z,100163.69
2023-02-14T03:08:45.062Z,100168.75
2023-02-14T03:11:13.527Z,100170.78
2023-02-14T03:13:43.794Z,100162.69
2023-02-14T03:20:05.269Z,100165.41
2023-02-14T03:22:38.618Z,100171.19
2023-02-14T03:25:11.298Z,100170.97
2023-02-14T03:27:44.970Z,100172.91
2023-02-14T03:30:28.434Z,100174.53
2023-02-14T03:33:03.082Z,100165.94
2023-02-14T03:35:40.484Z,100181.88
2023-02-14T03:38:16.259Z,100170.06
2023-02-14T03:40:49.593Z,100165.13
2023-02-14T03:43:32.501Z,100171.13
2023-02-14T03:46:12.365Z,100173.25
2023-02-14T03:48:40.901Z,100167.78
2023-02-14T03:51:10.890Z,100166.72
2023-02-14T03:53:43.804Z,100168.44
2023-02-14T03:56:58.102Z,100162.25
2023-02-14T03:59:28.638Z,100154.97
2023-02-14T04:02:17.216Z,100152.78
2023-02-14T04:04:46.690Z,100152.31
2023-02-14T04:07:15.869Z,100158.91
2023-02-14T04:09:42.961Z,100151.13
2023-02-14T04:12:09.833Z,100149.81
2023-02-14T04:14:36.653Z,100153.25
2023-02-14T04:17:21.995Z,100152.44
2023-02-14T04:19:48.557Z,100145.81
2023-02-14T04:22:15.512Z,100154.97
2023-02-14T04:24:42.033Z,100153.06
2023-02-14T04:27:11.631Z,100157.09
2023-02-14T04:29:48.050Z,100152.22
2023-02-14T04:32:20.818Z,100154.66
2023-02-14T04:34:48.262Z,100158.09
2023-02-14T04:37:17.138Z,100152.94
2023-02-14T04:39:43.832Z,100156.63
2023-02-14T04:42:10.336Z,100144.22
2023-02-14T04:44:38.430Z,100151.41
2023-02-14T04:47:05.584Z,100147.75
2023-02-14T04:49:32.145Z,100147.31
2023-02-14T04:51:59.064Z,100156.91
2023-02-14T04:54:25.881Z,100149.88
2023-02-14T04:56:52.460Z,100151.06
2023-02-14T04:59:19.037Z,100139.06
2023-02-14T05:01:45.711Z,100148.28
2023-02-14T05:04:12.380Z,100145.81
2023-02-14T05:06:38.901Z,100145.63
2023-02-14T05:09:05.436Z,100145.59
2023-02-14T05:11:32.034Z,100145.53
2023-02-14T05:13:58.544Z,100146.50
2023-02-14T05:16:25.482Z,100150.78
2023-02-14T05:18:52.130Z,100148.72
2023-02-14T05:21:18.770Z,100146.56
2023-02-14T05:23:45.412Z,100148.16
2023-02-14T05:26:11.985Z,100153.53
2023-02-14T05:28:41.214Z,100150.09
2023-02-14T05:31:08.640Z,100144.50
2023-02-14T05:33:35.557Z,100143.41
2023-02-14T05:36:02.870Z,100142.28
2023-02-14T05:41:08.921Z,100138.84
2023-02-14T05:43:35.480Z,100146.22
2023-02-14T05:46:02.178Z,100154.75
2023-02-14T05:48:28.810Z,100143.81
2023-02-14T05:50:55.415Z,100148.06
2023-02-14T05:53:21.977Z,100149.66
2023-02-14T05:55:48.505Z,100155.31
2023-02-14T05:58:15.296Z,100158.34
2023-02-14T06:00:41.859Z,100158.81
2023-02-14T06:03:08.883Z,100160.38
2023-02-14T06:08:13.389Z,100170.88
2023-02-14T06:10:39.894Z,100160.34
2023-02-14T06:13:09.107Z,100170.28
2023-02-14T06:15:36.858Z,100165.28
2023-02-14T06:18:04.968Z,100157.69
2023-02-14T06:20:31.589Z,100171.41
2023-02-14T06:22:58.213Z,100169.44
2023-02-14T06:25:25.087Z,100169.06
2023-02-14T06:27:51.838Z,100175.53
2023-02-14T06:30:18.767Z,100175.75
2023-02-14T06:32:45.444Z,100180.22
2023-02-14T06:35:11.971Z,100175.88
2023-02-14T06:37:38.929Z,100175.81
2023-02-14T06:40:06.176Z,100173.16
2023-02-14T06:42:32.788Z,100175.84
2023-02-14T06:44:59.309Z,100179.84
2023-02-14T06:47:25.870Z,100182.03
2023-02-14T06:49:52.492Z,100184.34
2023-02-14T06:54:56.938Z,100189.03
2023-02-14T06:57:23.466Z,100186.88
2023-02-14T06:59:49.999Z,100184.13
2023-02-14T07:02:16.573Z,100185.50
2023-02-14T07:04:43.131Z,100184.63
2023-02-14T07:07:09.702Z,100182.34
2023-02-14T07:09:36.414Z,100181.16
2023-02-14T07:12:03.019Z,100184.47
2023-02-14T07:14:29.644Z,100180.97
2023-02-14T07:16:56.300Z,100184.34
2023-02-14T07:19:22.881Z,100175.97
2023-02-14T07:24:20.704Z,100180.41
2023-02-14T07:26:47.252Z,100167.25
2023-02-14T07:29:13.759Z,100182.84
2023-02-14T07:31:40.430Z,100178.13
2023-02-14T07:34:07.100Z,100178.38
2023-02-14T07:36:34.254Z,100173.53
2023-02-14T07:39:00.770Z,100174.22
2023-02-14T07:41:27.417Z,100163.69
2023-02-14T07:43:53.924Z,100172.78
2023-02-14T07:46:20.577Z,100168.13
2023-02-14T07:48:48.348Z,100163.47
2023-02-14T07:51:14.919Z,100167.69
2023-02-14T07:53:41.509Z,100178.09
2023-02-14T07:58:40.733Z,100167.00
2023-02-14T08:01:07.330Z,100163.16
2023-02-14T08:03:33.872Z,100170.00
2023-02-14T08:06:00.406Z,100161.75
2023-02-14T08:08:28.703Z,100166.13
2023-02-14T08:10:55.368Z,100169.94
2023-02-14T08:13:22.055Z,100163.81
2023-02-14T08:16:07.477Z,100165.38
2023-02-14T08:18:39.897Z,100166.28
2023-02-14T08:23:41.293Z,100165.09
2023-02-14T08:26:07.885Z,100167.22
2023-02-14T08:28:35.417Z,100161.38
2023-02-14T08:31:04.399Z,100167.06
2023-02-14T08:33:31.183Z,100162.22
2023-02-14T08:35:57.760Z,100170.06
2023-02-14T08:38:24.521Z,100163.88
2023-02-14T08:40:51.102Z,100167.38
2023-02-14T08:43:17.641Z,100163.03
2023-02-14T08:45:44.477Z,100165.72
2023-02-14T08:48:12.853Z,100164.59
2023-02-14T08:50:40.366Z,100157.56
2023-02-14T08:53:09.713Z,100159.03
2023-02-14T08:55:37.125Z,100154.34
2023-02-14T08:58:04.297Z,100154.84
2023-02-14T09:00:31.910Z,100156.09
2023-02-14T09:02:58.918Z,100157.13
2023-02-14T09:05:26.592Z,100144.56
2023-02-14T09:07:56.016Z,100144.44
2023-02-14T09:10:23.701Z,100151.16
2023-02-14T09:12:50.429Z,100145.84
2023-02-14T09:15:17.156Z,100135.94
2023-02-14T09:17:43.995Z,100134.00
2023-02-14T09:20:13.859Z,100133.31
2023-02-14T09:22:40.484Z,100126.00
2023-02-14T09:25:07.320Z,100123.69
2023-02-14T09:27:33.874Z,100126.44
2023-02-14T09:30:00.524Z,100126.38
2023-02-14T09:32:27.405Z,100120.22
2023-02-14T09:34:54.009Z,100121.03
2023-02-14T09:40:15.808Z,100120.03
2023-02-14T09:43:03.745Z,100118.53
2023-02-14T09:45:33.480Z,100123.31
2023-02-14T09:48:05.845Z,100108.31
2023-02-14T09:53:40.716Z,100115.06
2023-02-14T09:56:10.426Z,100117.88
2023-02-14T09:58:40.242Z,100110.16
2023-02-14T10:01:22.257Z,100113.03
2023-02-14T10:04:25.688Z,100107.84
2023-02-14T10:07:09.406Z,100109.50
2023-02-14T10:09:52.321Z,100109.69
2023-02-14T10:12:34.165Z,100098.78
2023-02-14T10:15:08.061Z,100094.63
2023-02-14T10:17:44.929Z,100097.84
2023-02-14T10:22:57.882Z,100096.06
2023-02-14T10:25:29.288Z,100088.59
2023-02-14T10:27:58.880Z,100089.56
2023-02-14T10:30:26.129Z,100085.56
2023-02-14T10:36:09.144Z,100077.91
2023-02-14T10:38:57.758Z,100078.44
2023-02-14T10:41:38.013Z,100070.69
2023-02-14T10:44:30.745Z,100072.59
2023-02-14T10:47:13.292Z,100068.56
2023-02-14T10:49:59.345Z,100067.38
2023-02-14T10:52:29.335Z,100064.34
2023-02-14T10:55:00.165Z,100070.09
2023-02-14T10:57:34.873Z,100057.13
2023-02-14T11:00:03.269Z,100051.28
2023-02-14T11:02:40.431Z,100048.53
2023-02-14T11:05:08.871Z,100047.53
2023-02-14T11:07:35.380Z,100046.38
2023-02-14T11:12:39.933Z,100041.63
2023-02-14T11:15:15.491Z,100034.38
2023-02-14T11:17:42.881Z,100033.19
2023-02-14T11:20:18.684Z,100025.78
2023-02-14T11:22:45.617Z,100021.97
2023-02-14T11:25:21.447Z,100022.31
2023-02-14T11:27:51.957Z,100022.63
2023-02-14T11:30:30.654Z,100017.50
2023-02-14T11:35:34.682Z,100013.81
2023-02-14T11:38:04.420Z,100000.81
2023-02-14T11:40:37.834Z,100000.13
2023-02-14T11:43:16.083Z,99996.66
2023-02-14T11:48:37.123Z,99991.06
2023-02-14T11:51:10.904Z,99993.75
2023-02-14T11:53:46.508Z,99982.47
2023-02-14T11:56:14.364Z,99978.84
2023-02-14T11:58:55.614Z,99977.13
2023-02-14T12:01:32.198Z,99973.59
2023-02-14T12:04:05.223Z,99974.00
2023-02-14T12:06:35.307Z,99968.00
2023-02-14T12:09:11.976Z,99968.53
2023-02-14T12:11:39.258Z,99964.31
2023-02-14T12:14:05.940Z,99960.94
2023-02-14T12:16:48.931Z,99963.00
2023-02-14T12:19:26.941Z,99963.25
2023-02-14T12:21:59.813Z,99950.72
2023-02-14T12:24:38.458Z,99943.69
2023-02-14T12:29:59.961Z,99935.41
2023-02-14T12:32:29.484Z,99934.94
2023-02-14T12:35:16.320Z,99930.59
2023-02-14T12:38:23.938Z,99919.88
2023-02-14T12:41:10.979Z,99929.75
2023-02-14T12:43:53.488Z,99925.59
2023-02-14T12:46:58.979Z,99928.09
2023-02-14T12:49:54.808Z,99916.25
2023-02-14T12:52:32.063Z,99909.63
2023-02-14T12:55:27.324Z,99906.09
2023-02-14T12:58:15.435Z,99905.84
2023-02-14T13:00:53.436Z,99897.31
2023-02-14T13:03:25.940Z,99897.22
2023-02-14T13:06:15.032Z,99893.16
2023-02-14T13:09:02.092Z,99887.91
2023-02-14T13:12:05.773Z,99892.59
2023-02-14T13:14:58.212Z,99895.25
2023-02-14T13:17:49.199Z,99881.94
2023-02-14T13:20:37.004Z,99881.25
2023-02-14T13:23:12.613Z,99877.19
2023-02-14T13:25:50.042Z,99867.94
2023-02-14T13:28:18.643Z,99866.69
2023-02-14T13:30:45.586Z,99868.53
2023-02-14T13:33:25.014Z,99866.97
2023-02-14T13:35:55.513Z,99863.00
2023-02-14T13:38:24.010Z,99862.56
2023-02-14T13:40:52.269Z,99862.69
2023-02-14T13:43:45.179Z,99862.50
2023-02-14T13:48:56.496Z,99860.78
2023-02-14T13:51:47.354Z,99861.53
2023-02-14T13:54:37.713Z,99853.19
2023-02-14T13:57:31.678Z,99849.88
2023-02-14T14:00:16.454Z,99841.00
2023-02-14T14:02:54.071Z,99850.97
2023-02-14T14:05:29.711Z,99847.66
2023-02-14T14:08:20.832Z,99845.03
2023-02-14T14:10:56.253Z,99843.91
2023-02-14T14:13:40.926Z,99844.91
2023-02-14T14:16:28.679Z,99836.34
2023-02-14T14:19:04.786Z,99840.81
2023-02-14T14:21:34.463Z,99839.84
2023-02-14T14:24:24.049Z,99841.75
2023-02-14T14:27:15.352Z,99842.44
2023-02-14T14:29:48.376Z,99845.59
2023-02-14T14:35:01.200Z,99835.06
2023-02-14T14:37:31.050Z,99845.66
2023-02-14T14:40:00.250Z,99833.66
2023-02-14T14:42:30.950Z,99830.84
2023-02-14T14:45:01.828Z,99833.56
2023-02-14T14:47:34.881Z,99831.31
2023-02-14T14:50:07.610Z,99824.31
2023-02-14T14:52:38.404Z,99828.31
2023-02-14T14:55:07.715Z,99834.19
2023-02-14T14:57:36.726Z,99826.88
2023-02-14T15:00:24.227Z,99819.53
2023-02-14T15:03:14.870Z,99821.94
2023-02-14T15:05:50.312Z,99826.22
2023-02-14T15:08:31.513Z,99820.56
2023-02-14T15:11:34.646Z,99816.75
2023-02-14T15:14:03.346Z,99823.84
2023-02-14T15:19:16.265Z,99823.22
2023-02-14T15:21:44.693Z,99821.28
2023-02-14T15:24:14.769Z,99825.88
2023-02-14T15:26:45.007Z,99835.50
2023-02-14T15:29:26.983Z,99825.56
2023-02-14T15:31:54.703Z,99831.31
2023-02-14T15:34:25.710Z,99829.25
2023-02-14T15:36:57.681Z,99825.09
2023-02-14T15:39:30.222Z,99831.56
2023-02-14T15:41:56.786Z,99822.75
2023-02-14T15:47:02.163Z,99827.41
2023-02-14T15:49:37.923Z,99821.66
2023-02-14T15:52:05.777Z,99819.09
2023-02-14T15:54:41.473Z,99817.66
2023-02-14T15:57:20.922Z,99820.06
2023-02-14T15:59:48.704Z,99820.69
2023-02-14T16:02:37.794Z,99823.88
2023-02-14T16:05:22.242Z,99824.63
2023-02-14T16:08:22.973Z,99824.63
2023-02-14T16:11:15.915Z,99824.09
2023-02-14T16:13:45.004Z,99826.94
2023-02-14T16:18:50.497Z,99827.34
2023-02-14T16:21:33.398Z,99826.81
2023-02-14T16:24:11.986Z,99832.50
2023-02-14T16:26:41.190Z,99824.81
2023-02-14T16:29:10.746Z,99823.75
2023-02-14T16:32:06.191Z,99820.78
2023-02-14T16:34:32.867Z,99821.66
2023-02-14T16:37:07.865Z,99820.31
2023-02-14T16:39:35.415Z,99828.53
2023-02-14T16:42:03.630Z,99833.34
2023-02-14T16:44:31.076Z,99834.44
2023-02-14T16:46:57.698Z,99832.97
2023-02-14T16:49:24.721Z,99830.69
2023-02-14T16:51:52.363Z,99834.88
2023-02-14T16:54:21.505Z,99833.94
2023-02-14T16:57:00.189Z,99832.31
2023-02-14T16:59:26.870Z,99833.56
2023-02-14T17:01:53.997Z,99843.63
2023-02-14T17:04:21.229Z,99839.44
2023-02-14T17:06:53.803Z,99843.22
2023-02-14T17:09:25.656Z,99836.22
2023-02-14T17:11:54.432Z,99840.31
2023-02-14T17:14:25.692Z,99842.84
2023-02-14T17:16:52.786Z,99840.41
2023-02-14T17:19:19.505Z,99839.44
2023-02-14T17:21:46.322Z,99852.84
2023-02-14T17:24:12.834Z,99848.41
2023-02-14T17:26:39.355Z,99855.47
2023-02-14T17:29:06.969Z,99856.50
2023-02-14T17:31:35.956Z,99857.44
2023-02-14T17:36:41.498Z,99851.81
2023-02-14T17:39:08.118Z,99856.09
2023-02-14T17:41:34.701Z,99850.75
2023-02-14T17:44:01.431Z,99853.53
2023-02-14T17:46:29.345Z,99854.25
2023-02-14T17:48:57.172Z,99855.25
2023-02-14T17:51:24.809Z,99850.66
2023-02-14T17:53:51.464Z,99849.03
2023-02-14T17:56:23.738Z,99853.72
2023-02-14T17:58:52.641Z,99855.38
2023-02-14T18:01:21.837Z,99858.88
2023-02-14T18:03:48.887Z,99851.50
2023-02-14T18:08:51.887Z,99856.44
2023-02-14T18:11:20.114Z,99858.00
2023-02-14T18:16:19.375Z,99859.16
2023-02-14T18:21:21.358Z,99860.16
2023-02-14T18:23:48.170Z,99861.75
2023-02-14T18:26:16.574Z,99864.38
2023-02-14T18:28:43.096Z,99866.09
2023-02-14T18:33:52.387Z,99857.09
2023-02-14T18:36:24.306Z,99854.59
2023-02-14T18:38:51.059Z,99858.84
2023-02-14T18:41:19.466Z,99852.97
2023-02-14T18:43:46.202Z,99846.75
2023-02-14T18:46:18.187Z,99844.53
2023-02-14T18:48:45.383Z,99844.59
2023-02-14T18:51:23.818Z,99847.94
2023-02-14T18:53:55.025Z,99843.13
2023-02-14T18:56:25.661Z,99833.75
2023-02-14T18:59:02.772Z,99838.69
2023-02-14T19:01:32.251Z,99833.72
2023-02-14T19:04:00.468Z,99833.44
2023-02-14T19:06:29.986Z,99830.22
2023-02-14T19:08:57.595Z,99825.44
2023-02-14T19:11:27.408Z,99820.56
2023-02-14T19:13:56.700Z,99819.97
2023-02-14T19:16:26.236Z,99814.34
2023-02-14T19:18:53.917Z,99815.44
2023-02-14T19:21:23.185Z,99817.88
2023-02-14T19:23:52.143Z,99817.66
2023-02-14T19:26:21.265Z,99818.16
2023-02-14T19:28:49.613Z,99820.63
2023-02-14T19:31:16.716Z,99820.59
2023-02-14T19:33:45.905Z,99820.00
2023-02-14T19:36:14.825Z,99807.66
2023-02-14T19:38:43.413Z,99811.41
2023-02-14T19:41:24.802Z,99804.19
2023-02-14T19:43:51.819Z,99808.00
2023-02-14T19:46:20.601Z,99801.66
2023-02-14T19:48:48.720Z,99802.69
2023-02-14T19:51:21.734Z,99798.13
2023-02-14T19:53:49.887Z,99807.81
2023-02-14T19:56:21.550Z,99793.38
2023-02-14T19:58:49.436Z,99801.69
2023-02-14T20:01:25.943Z,99793.50
2023-02-14T20:03:53.329Z,99793.00
2023-02-14T20:06:23.767Z,99794.34
2023-02-14T20:08:50.934Z,99780.25
2023-02-14T20:11:29.172Z,99791.09
2023-02-14T20:13:56.262Z,99777.59
2023-02-14T20:16:25.686Z,99787.63
2023-02-14T20:18:53.086Z,99778.50
2023-02-14T20:21:28.118Z,99782.78
2023-02-14T20:29:04.689Z,99783.56
2023-02-14T20:31:33.263Z,99782.78
2023-02-14T20:34:00.695Z,99782.56
2023-02-14T20:36:27.349Z,99772.31
2023-02-14T20:38:58.977Z,99775.31
2023-02-14T20:41:26.425Z,99771.88
2023-02-14T20:43:53.253Z,99766.47
2023-02-14T20:46:20.142Z,99772.06
2023-02-14T20:48:46.741Z,99767.25
2023-02-14T20:51:19.225Z,99768.91
2023-02-14T20:53:46.403Z,99764.09
2023-02-14T20:56:14.680Z,99761.97
2023-02-14T20:58:41.558Z,99753.31
2023-02-14T21:01:11.052Z,99751.09
2023-02-14T21:03:38.173Z,99754.31
2023-02-14T21:06:06.761Z,99754.88
2023-02-14T21:08:33.832Z,99747.94
2023-02-14T21:11:00.861Z,99735.38
2023-02-14T21:13:27.524Z,99727.53
2023-02-14T21:15:54.151Z,99729.75
2023-02-14T21:18:20.820Z,99728.81
2023-02-14T21:20:47.377Z,99728.78
2023-02-14T21:23:13.953Z,99729.69
2023-02-14T21:25:40.516Z,99724.97
2023-02-14T21:28:07.001Z,99730.41
2023-02-14T21:30:33.579Z,99729.91
2023-02-14T21:35:31.709Z,99732.13
2023-02-14T21:37:58.217Z,99722.03
2023-02-14T21:40:24.761Z,99723.50
2023-02-14T21:42:51.322Z,99724.31
2023-02-14T21:45:36.406Z,99711.69
2023-02-14T21:48:21.705Z,99720.03
2023-02-14T21:50:48.237Z,99710.69
2023-02-14T21:53:14.764Z,99717.06
2023-02-14T21:55:42.834Z,99714.69
2023-02-14T21:58:09.403Z,99723.91
2023-02-14T22:05:47.244Z,99722.25
2023-02-14T22:08:13.787Z,99721.44
2023-02-14T22:10:40.603Z,99722.56
2023-02-14T22:13:07.270Z,99721.09
2023-02-14T22:18:07.338Z,99711.75
2023-02-14T22:20:33.846Z,99715.28
2023-02-14T22:25:38.354Z,99724.75
2023-02-14T22:30:36.196Z,99726.34
2023-02-14T22:33:02.713Z,99713.16
2023-02-14T22:35:29.370Z,99713.13
2023-02-14T22:37:56.115Z,99716.16
2023-02-14T22:40:22.702Z,99722.34
2023-02-14T22:42:49.214Z,99707.56
2023-02-14T22:47:53.480Z,99703.97
2023-02-14T22:50:20.078Z,99715.88
2023-02-14T22:52:46.689Z,99707.81
2023-02-14T22:55:13.220Z,99709.94
2023-02-14T22:57:39.774Z,99702.53
2023-02-14T23:00:11.770Z,99693.09
2023-02-14T23:02:39.046Z,99705.97
2023-02-14T23:05:05.907Z,99697.56
2023-02-14T23:07:32.536Z,99692.66
2023-02-14T23:09:59.151Z,99693.94
2023-02-14T23:12:44.214Z,99695.28
2023-02-14T23:15:29.210Z,99689.66
2023-02-14T23:18:14.856Z,99694.19
2023-02-14T23:20:59.935Z,99690.78
2023-02-14T23:23:31.465Z,99684.63
2023-02-14T23:25:58.344Z,99685.41
2023-02-14T23:28:25.848Z,99691.34
2023-02-14T23:30:52.554Z,99694.94
2023-02-14T23:33:19.199Z,99689.94
2023-02-14T23:35:45.988Z,99695.41
2023-02-14T23:38:12.518Z,99691.66
2023-02-14T23:40:57.816Z,99689.53
2023-02-14T23:43:27.461Z,99686.03
2023-02-14T23:45:54.513Z,99683.28
2023-02-14T23:48:21.103Z,99687.81
2023-02-14T23:50:47.691Z,99676.31
2023-02-14T23:53:15.421Z,99678.38
2023-02-14T23:58:13.189Z,99678.72
